createdAt,value
2018-04-26T00:00:20.187Z,7.36
2018-04-26T00:06:11.102Z,6.86
2018-04-26T00:12:01.943Z,6.33
2018-04-26T00:17:52.798Z,6.64
2018-04-26T00:23:43.757Z,6.94
2018-04-26T00:29:34.607Z,6.72
2018-04-26T00:35:25.469Z,7.07
2018-04-26T00:41:16.410Z,6.89
2018-04-26T00:47:07.264Z,7.25
2018-04-26T00:52:58.189Z,7.12
2018-04-26T00:58:49.060Z,6.61
2018-04-26T01:04:39.915Z,7.37
2018-04-26T01:10:30.801Z,6.82
2018-04-26T01:16:21.694Z,6.99
2018-04-26T01:22:12.593Z,6.55
2018-04-26T01:28:03.497Z,6.91
2018-04-26T01:33:54.379Z,7.21
2018-04-26T01:39:45.323Z,7.03
2018-04-26T01:45:36.156Z,7.14
2018-04-26T01:51:27.012Z,7.17
2018-04-26T01:57:17.877Z,7.81
2018-04-26T02:03:08.747Z,8.07
2018-04-26T02:08:59.636Z,6.89
2018-04-26T02:14:50.502Z,7.4
2018-04-26T02:20:41.430Z,7.51
2018-04-26T02:26:32.304Z,8.48
2018-04-26T02:32:23.196Z,8.55
2018-04-26T02:38:14.040Z,8.25
2018-04-26T02:44:05.011Z,7.72
2018-04-26T02:49:55.879Z,8.17
2018-04-26T02:55:46.793Z,7.84
2018-04-26T03:01:37.605Z,8.58
2018-04-26T03:07:28.513Z,8.01
2018-04-26T03:13:19.393Z,7.68
2018-04-26T03:19:10.330Z,8.07
2018-04-26T03:25:01.153Z,7.46
2018-04-26T03:30:52.039Z,8.61
2018-04-26T03:36:42.926Z,8.03
2018-04-26T03:42:33.834Z,8.16
2018-04-26T03:48:24.682Z,7.52
2018-04-26T03:54:19.644Z,7.39
2018-04-26T04:00:06.449Z,7
2018-04-26T04:05:57.405Z,7.35
2018-04-26T04:11:48.216Z,7.71
2018-04-26T04:17:39.099Z,7.86
2018-04-26T04:23:30.016Z,8.27
2018-04-26T04:29:20.945Z,8.48
2018-04-26T04:35:11.710Z,7.87
2018-04-26T04:41:02.660Z,9.05
2018-04-26T04:46:53.491Z,11.48
2018-04-26T04:52:44.336Z,11.7
2018-04-26T04:58:35.232Z,34.56
2018-04-26T05:04:26.123Z,22.92
2018-04-26T05:10:17.014Z,17.51
2018-04-26T05:16:07.874Z,16.61
2018-04-26T05:21:58.740Z,16.33
2018-04-26T05:27:49.620Z,16.15
2018-04-26T05:33:40.591Z,17.12
2018-04-26T05:39:31.440Z,16.43
2018-04-26T05:45:22.291Z,15.37
2018-04-26T05:51:13.181Z,15.7
2018-04-26T05:57:04.039Z,19.85
2018-04-26T06:02:54.948Z,22.51
2018-04-26T06:08:45.851Z,22.39
2018-04-26T06:14:36.658Z,27.49
2018-04-26T06:20:27.591Z,28.44
2018-04-26T06:26:18.475Z,33.01
2018-04-26T06:32:09.330Z,29.74
2018-04-26T06:38:00.209Z,38.91
2018-04-26T06:43:51.120Z,36.28
2018-04-26T06:49:42.054Z,33.01
2018-04-26T06:55:32.864Z,30.78
2018-04-26T07:07:14.642Z,24.22
2018-04-26T07:13:05.510Z,20.77
2018-04-26T07:18:56.400Z,19.34
2018-04-26T07:24:47.317Z,18.3
2018-04-26T07:30:38.170Z,15.83
2018-04-26T07:36:29.100Z,14.55
2018-04-26T07:42:19.930Z,15.36
2018-04-26T07:48:10.849Z,15.26
2018-04-26T07:54:01.726Z,15.54
2018-04-26T07:59:52.563Z,15.05
2018-04-26T08:05:43.488Z,13.09
2018-04-26T08:11:34.352Z,12.63
2018-04-26T08:17:25.228Z,12.76
2018-04-26T08:23:16.134Z,12.79
2018-04-26T08:29:07.016Z,10
2018-04-26T08:34:57.907Z,8.15
2018-04-26T08:40:48.786Z,6.56
2018-04-26T08:46:39.655Z,6.88
2018-04-26T08:52:30.572Z,8.06
2018-04-26T08:58:21.429Z,6.92
2018-04-26T09:04:12.310Z,8
2018-04-26T09:10:03.215Z,18.91
2018-04-26T09:15:54.116Z,16.21
2018-04-26T09:21:45.058Z,21.02
2018-04-26T09:27:35.870Z,18.78
2018-04-26T09:33:26.772Z,37.76
2018-04-26T09:39:17.659Z,53.28
2018-04-26T09:45:08.544Z,54.91
2018-04-26T09:50:59.437Z,53
2018-04-26T09:56:50.339Z,52.24
2018-04-26T10:02:41.274Z,55.13
2018-04-26T10:08:32.164Z,54.18
2018-04-26T10:14:23.024Z,48.34
2018-04-26T10:20:13.899Z,36.94
2018-04-26T10:26:04.798Z,34.11
2018-04-26T10:31:55.692Z,37.96
2018-04-26T10:37:46.590Z,30.99
2018-04-26T10:43:37.487Z,38.23
2018-04-26T10:49:28.428Z,34.01
2018-04-26T10:55:19.332Z,27.89
2018-04-26T11:01:10.247Z,21.23
2018-04-26T11:07:01.153Z,19.76
2018-04-26T11:12:52.059Z,27.58
2018-04-26T11:18:43.001Z,28.48
2018-04-26T11:24:33.898Z,23.66
2018-04-26T11:30:24.811Z,15.51
2018-04-26T11:36:15.749Z,17.29
2018-04-26T11:42:06.819Z,18.98
2018-04-26T11:47:57.682Z,23.08
2018-04-26T11:53:48.609Z,20.89
2018-04-26T11:59:39.512Z,15.56
2018-04-26T12:05:30.487Z,17.1
2018-04-26T12:11:21.414Z,12.86
2018-04-26T12:17:12.379Z,29.48
2018-04-26T12:23:03.306Z,20.1
2018-04-26T12:28:54.258Z,20.66
2018-04-26T12:34:45.251Z,18.7
2018-04-26T12:40:36.170Z,12.29
2018-04-26T12:46:27.114Z,13.24
2018-04-26T12:52:18.076Z,10.4
2018-04-26T12:58:09.146Z,8.27
2018-04-26T13:04:00.048Z,11.15
2018-04-26T13:09:50.978Z,10.79
2018-04-26T13:15:41.954Z,7.7
2018-04-26T13:21:32.872Z,7.54
2018-04-26T13:27:23.862Z,6.01
2018-04-26T13:33:14.832Z,5.43
2018-04-26T13:39:05.826Z,4.94
2018-04-26T13:44:56.736Z,6.24
2018-04-26T13:50:47.661Z,8.24
2018-04-26T13:56:38.633Z,8.15
2018-04-26T14:02:29.604Z,6.9
2018-04-26T14:08:20.555Z,6.21
2018-04-26T14:14:11.468Z,5.22
2018-04-26T14:20:02.447Z,4.35
2018-04-26T14:25:53.405Z,4.32
2018-04-26T14:31:44.375Z,4.16
2018-04-26T14:37:35.413Z,5.56
2018-04-26T14:43:26.328Z,6.84
2018-04-26T14:49:17.193Z,18.07
2018-04-26T14:55:08.144Z,16.69
2018-04-26T15:00:59.074Z,28.72
2018-04-26T15:06:49.997Z,25.14
2018-04-26T15:12:40.954Z,15.71
2018-04-26T15:18:31.909Z,19.7
2018-04-26T15:24:22.838Z,14.46
2018-04-26T15:30:13.799Z,13.89
2018-04-26T15:36:04.765Z,13.6
2018-04-26T15:43:03.389Z,29.14
2018-04-26T15:48:54.291Z,19.01
2018-04-26T16:00:36.163Z,18.67
2018-04-26T16:06:27.120Z,7.09
2018-04-26T16:12:18.041Z,15.75
2018-04-26T16:18:08.994Z,15.34
2018-04-26T16:23:59.922Z,10.77
2018-04-26T16:29:50.854Z,8.7
2018-04-26T16:35:41.768Z,7.19
2018-04-26T16:41:32.782Z,6.09
2018-04-26T16:47:23.684Z,5.37
2018-04-26T16:53:14.566Z,5.49
2018-04-26T16:59:05.504Z,5.3
2018-04-26T17:04:56.485Z,4.78
2018-04-26T17:10:47.390Z,4.14
2018-04-26T17:16:38.316Z,5.23
2018-04-26T17:22:29.263Z,4.62
2018-04-26T17:28:20.180Z,4.65
2018-04-26T17:34:11.082Z,4.44
2018-04-26T17:40:02.004Z,4.03
2018-04-26T17:45:52.939Z,5.14
2018-04-26T17:57:34.819Z,5.55
2018-04-26T18:03:25.728Z,4.53
2018-04-26T18:09:16.713Z,5
2018-04-26T18:15:07.568Z,5.33
2018-04-26T18:20:58.504Z,5.82
2018-04-26T18:26:49.414Z,5.46
2018-04-26T18:32:40.985Z,5.07
2018-04-26T18:38:31.237Z,5.29
2018-04-26T18:44:22.230Z,5.91
2018-04-26T18:50:13.097Z,5.86
2018-04-26T18:56:03.984Z,5.54
2018-04-26T19:01:54.902Z,5.58
2018-04-26T19:07:45.886Z,5.69
2018-04-26T19:13:36.735Z,5.26
2018-04-26T19:19:27.706Z,5.41
2018-04-26T19:25:18.573Z,5.3
2018-04-26T19:31:09.461Z,5.16
2018-04-26T19:37:00.371Z,5.86
2018-04-26T19:42:51.348Z,5.55
2018-04-26T19:48:42.222Z,6.01
2018-04-26T19:54:33.140Z,6.43
2018-04-26T20:00:24.049Z,5.84
2018-04-26T20:06:14.980Z,5.79
2018-04-26T20:12:05.892Z,5.6
2018-04-26T20:17:56.802Z,6.14
2018-04-26T20:23:47.711Z,6.19
2018-04-26T20:29:38.569Z,6.24
2018-04-26T20:35:29.460Z,6.25
2018-04-26T20:41:20.467Z,6.08
2018-04-26T20:47:11.290Z,6.23
2018-04-26T20:53:02.213Z,7.03
2018-04-26T20:58:53.136Z,6.36
2018-04-26T21:04:44.022Z,6.11
2018-04-26T21:10:34.991Z,5.91
2018-04-26T21:16:25.830Z,6.33
2018-04-26T21:22:16.689Z,7
2018-04-26T21:28:07.632Z,6.8
2018-04-26T21:33:58.535Z,5.81
2018-04-26T21:39:49.444Z,6.57
2018-04-26T21:45:40.288Z,6.33
2018-04-26T21:51:31.234Z,7.14
2018-04-26T21:57:22.142Z,7.11
2018-04-26T22:03:12.988Z,6.93
2018-04-26T22:09:03.910Z,7.07
2018-04-26T22:14:54.796Z,6.3
2018-04-26T22:20:45.708Z,6.61
2018-04-26T22:26:36.558Z,6.27
2018-04-26T22:32:27.497Z,5.6
2018-04-26T22:38:18.413Z,6.68
2018-04-26T22:44:09.275Z,6.05
2018-04-26T22:50:00.126Z,6.72
2018-04-26T22:55:51.072Z,6.99
2018-04-26T23:01:42.012Z,5.99
2018-04-26T23:07:32.825Z,6.41
2018-04-26T23:13:23.708Z,6.9
2018-04-26T23:19:14.621Z,6.62
2018-04-26T23:25:05.484Z,6.24
2018-04-26T23:30:56.446Z,6.22
2018-04-26T23:36:47.313Z,5.91
2018-04-26T23:42:38.207Z,6.32
2018-04-26T23:48:29.046Z,6.89
2018-04-26T23:54:19.943Z,6.31
